createdAt,value
2022-10-03T00:01:20.748Z,1.20
2022-10-03T00:05:02.479Z,1.02
2022-10-03T00:08:26.734Z,1.23
2022-10-03T00:11:37.972Z,1.33
2022-10-03T00:15:01.988Z,1.30
2022-10-03T00:18:34.635Z,1.60
2022-10-03T00:22:01.070Z,1.40
2022-10-03T00:25:44.709Z,1.52
2022-10-03T00:28:55.905Z,1.30
2022-10-03T00:32:00.956Z,1.75
2022-10-03T00:35:27.715Z,1.30
2022-10-03T00:39:03.851Z,1.17
2022-10-03T00:42:43.387Z,1.33
2022-10-03T00:45:58.280Z,1.10
2022-10-03T00:49:24.867Z,1.10
2022-10-03T00:52:41.599Z,1.20
2022-10-03T00:56:15.714Z,1.13
2022-10-03T00:59:26.727Z,1.13
2022-10-03T01:02:46.889Z,1.50
2022-10-03T01:06:21.401Z,1.10
2022-10-03T01:09:37.188Z,1.02
2022-10-03T01:12:49.090Z,1.00
2022-10-03T01:15:54.357Z,1.15
2022-10-03T01:19:14.827Z,1.48
2022-10-03T01:22:31.626Z,0.98
2022-10-03T01:26:01.446Z,1.17
2022-10-03T01:30:11.434Z,1.58
2022-10-03T01:33:24.195Z,0.98
2022-10-03T01:36:40.423Z,1.00
2022-10-03T01:39:48.992Z,1.00
2022-10-03T01:46:28.253Z,1.05
2022-10-03T01:50:00.302Z,1.08
2022-10-03T01:53:13.615Z,1.23
2022-10-03T01:56:27.255Z,1.23
2022-10-03T01:59:29.296Z,1.55
2022-10-03T02:02:50.188Z,1.23
2022-10-03T02:06:06.936Z,1.50
2022-10-03T02:09:41.053Z,1.08
2022-10-03T02:13:05.991Z,1.40
2022-10-03T02:16:23.415Z,1.40
2022-10-03T02:19:37.016Z,1.60
2022-10-03T02:22:44.859Z,2.30
2022-10-03T02:26:09.626Z,1.95
2022-10-03T02:29:23.446Z,1.67
2022-10-03T02:32:56.050Z,1.27
2022-10-03T02:36:20.084Z,1.33
2022-10-03T02:39:23.175Z,1.30
2022-10-03T02:42:43.843Z,1.67
2022-10-03T02:46:13.540Z,1.17
2022-10-03T02:49:36.769Z,1.50
2022-10-03T02:53:15.699Z,1.65
2022-10-03T02:56:50.069Z,1.33
2022-10-03T03:00:04.675Z,1.30
2022-10-03T03:03:19.259Z,1.40
2022-10-03T03:06:41.923Z,2.50
2022-10-03T03:10:02.493Z,1.42
2022-10-03T03:13:39.495Z,1.48
2022-10-03T03:17:03.143Z,1.73
2022-10-03T03:20:08.401Z,1.75
2022-10-03T03:23:35.445Z,1.65
2022-10-03T03:26:51.947Z,2.08
2022-10-03T03:30:02.971Z,1.88
2022-10-03T03:33:34.390Z,1.70
2022-10-03T03:37:08.536Z,2.22
2022-10-03T03:40:51.398Z,1.25
2022-10-03T03:44:20.740Z,1.42
2022-10-03T03:47:31.729Z,2.03
2022-10-03T03:50:36.686Z,1.63
2022-10-03T03:53:49.027Z,1.40
2022-10-03T03:57:09.567Z,1.50
2022-10-03T04:00:16.166Z,1.40
2022-10-03T04:03:46.181Z,1.00
2022-10-03T04:06:50.987Z,1.40
2022-10-03T04:10:11.935Z,1.48
2022-10-03T04:13:26.691Z,1.35
2022-10-03T04:17:16.612Z,1.58
2022-10-03T04:20:40.270Z,1.63
2022-10-03T04:24:19.896Z,1.38
2022-10-03T04:27:33.174Z,1.33
2022-10-03T04:31:01.450Z,1.15
2022-10-03T04:34:12.694Z,1.13
2022-10-03T04:37:42.636Z,1.00
2022-10-03T04:40:58.600Z,1.20
2022-10-03T04:44:15.777Z,1.40
2022-10-03T04:47:28.252Z,1.35
2022-10-03T04:50:51.928Z,1.38
2022-10-03T04:54:04.321Z,1.30
2022-10-03T04:57:54.416Z,0.88
2022-10-03T05:01:16.281Z,1.17
2022-10-03T05:04:24.298Z,1.02
2022-10-03T05:07:43.109Z,1.27
2022-10-03T05:11:06.060Z,1.30
2022-10-03T05:14:13.127Z,0.77
2022-10-03T05:17:23.671Z,1.10
2022-10-03T05:20:37.873Z,1.02
2022-10-03T05:23:53.002Z,1.30
2022-10-03T05:27:11.317Z,1.27
2022-10-03T05:30:25.686Z,1.53
2022-10-03T05:33:53.009Z,1.13
2022-10-03T05:37:07.684Z,1.35
2022-10-03T05:40:17.387Z,1.77
2022-10-03T05:43:28.439Z,2.90
2022-10-03T05:46:42.671Z,1.52
2022-10-03T05:50:10.974Z,1.75
2022-10-03T05:53:22.394Z,1.60
2022-10-03T05:56:49.061Z,2.08
2022-10-03T06:00:18.742Z,1.40
2022-10-03T06:07:22.174Z,3.42
2022-10-03T06:10:45.587Z,3.72
2022-10-03T06:14:17.162Z,2.67
2022-10-03T06:17:43.983Z,1.45
2022-10-03T06:21:05.109Z,1.55
2022-10-03T06:24:16.299Z,1.35
2022-10-03T06:27:42.441Z,1.92
2022-10-03T06:30:56.902Z,1.60
2022-10-03T06:34:41.965Z,1.17
2022-10-03T06:37:50.184Z,1.38
2022-10-03T06:41:07.245Z,1.08
2022-10-03T06:44:41.213Z,1.10
2022-10-03T06:48:21.997Z,1.30
2022-10-03T06:51:39.428Z,1.10
2022-10-03T06:55:04.530Z,0.93
2022-10-03T06:58:37.442Z,0.95
2022-10-03T07:02:19.902Z,1.20
2022-10-03T07:05:43.191Z,1.27
2022-10-03T07:09:21.922Z,1.10
2022-10-03T07:12:38.836Z,1.23
2022-10-03T07:16:05.012Z,0.82
2022-10-03T07:19:27.965Z,0.73
2022-10-03T07:22:41.879Z,0.88
2022-10-03T07:26:08.698Z,1.15
2022-10-03T07:29:31.860Z,1.27
2022-10-03T07:36:30.333Z,1.27
2022-10-03T07:39:52.447Z,1.08
2022-10-03T07:43:12.615Z,0.95
2022-10-03T07:46:36.566Z,0.70
2022-10-03T07:50:03.223Z,0.68
2022-10-03T07:53:14.491Z,1.42
2022-10-03T07:56:40.757Z,0.77
2022-10-03T07:59:59.787Z,1.45
2022-10-03T08:06:43.613Z,0.98
2022-10-03T08:10:09.017Z,1.05
2022-10-03T08:13:49.517Z,1.50
2022-10-03T08:17:50.045Z,1.23
2022-10-03T08:21:03.657Z,2.92
2022-10-03T08:24:45.381Z,2.63
2022-10-03T08:28:09.107Z,2.20
2022-10-03T08:31:42.836Z,2.13
2022-10-03T08:34:50.911Z,2.05
2022-10-03T08:38:12.003Z,1.73
2022-10-03T08:41:32.402Z,2.10
2022-10-03T08:44:48.153Z,2.33
2022-10-03T08:48:09.230Z,2.42
2022-10-03T08:51:49.164Z,2.85
2022-10-03T08:55:00.023Z,2.42
2022-10-03T08:58:32.378Z,2.53
2022-10-03T09:01:50.614Z,2.47
2022-10-03T09:05:30.602Z,1.80
2022-10-03T09:08:54.669Z,2.73
2022-10-03T09:12:08.727Z,2.80
2022-10-03T09:15:44.514Z,3.28
2022-10-03T09:18:58.525Z,1.77
2022-10-03T09:22:03.287Z,2.35
2022-10-03T09:25:11.080Z,2.25
2022-10-03T09:28:44.345Z,2.22
2022-10-03T09:32:14.997Z,1.70
2022-10-03T09:35:22.873Z,1.70
2022-10-03T09:38:57.021Z,1.40
2022-10-03T09:42:36.626Z,1.42
2022-10-03T09:46:03.180Z,1.25
2022-10-03T09:49:54.467Z,1.30
2022-10-03T09:53:33.251Z,1.45
2022-10-03T09:56:47.860Z,0.82
2022-10-03T10:00:03.656Z,1.15
2022-10-03T10:03:29.088Z,1.05
2022-10-03T10:06:40.675Z,1.10
2022-10-03T10:10:03.760Z,0.85
2022-10-03T10:13:26.986Z,1.77
2022-10-03T10:16:47.103Z,1.73
2022-10-03T10:19:56.615Z,1.35
2022-10-03T10:23:05.407Z,0.85
2022-10-03T10:26:25.310Z,1.33
2022-10-03T10:29:36.960Z,2.13
2022-10-03T10:32:48.148Z,1.13
2022-10-03T10:36:16.861Z,0.95
2022-10-03T10:39:34.350Z,1.03
2022-10-03T10:43:01.506Z,1.15
2022-10-03T10:46:29.204Z,0.80
2022-10-03T10:49:43.184Z,1.15
2022-10-03T10:53:09.136Z,1.23
2022-10-03T10:56:22.958Z,1.20
2022-10-03T10:59:58.851Z,1.48
2022-10-03T11:03:57.576Z,1.10
2022-10-03T11:07:17.848Z,1.75
2022-10-03T11:10:34.260Z,1.75
2022-10-03T11:13:43.804Z,1.17
2022-10-03T11:17:23.425Z,1.13
2022-10-03T11:20:43.624Z,0.88
2022-10-03T11:24:14.068Z,1.00
2022-10-03T11:27:52.002Z,0.90
2022-10-03T11:31:21.906Z,1.63
2022-10-03T11:34:37.193Z,0.90
2022-10-03T11:37:39.880Z,0.68
2022-10-03T11:40:55.925Z,0.63
2022-10-03T11:44:59.683Z,1.95
2022-10-03T11:48:26.365Z,1.25
2022-10-03T11:51:41.147Z,1.33
2022-10-03T11:54:48.304Z,1.20
2022-10-03T11:58:19.156Z,2.10
2022-10-03T12:01:37.517Z,1.05
2022-10-03T12:05:07.228Z,1.10
2022-10-03T12:12:00.652Z,1.08
2022-10-03T12:15:31.667Z,1.17
2022-10-03T12:18:45.573Z,0.88
2022-10-03T12:22:22.943Z,0.82
2022-10-03T12:25:28.005Z,0.77
2022-10-03T12:28:42.364Z,1.05
2022-10-03T12:32:16.162Z,0.70
2022-10-03T12:36:03.389Z,1.30
2022-10-03T12:39:37.769Z,0.95
2022-10-03T12:43:29.323Z,0.88
2022-10-03T12:46:51.964Z,1.00
2022-10-03T12:50:09.947Z,0.68
2022-10-03T12:53:17.827Z,0.80
2022-10-03T12:57:07.322Z,1.27
2022-10-03T13:00:28.004Z,0.77
2022-10-03T13:04:09.871Z,1.08
2022-10-03T13:07:33.927Z,1.02
2022-10-03T13:10:50.515Z,1.02
2022-10-03T13:14:37.513Z,1.52
2022-10-03T13:17:49.637Z,1.15
2022-10-03T13:21:45.040Z,1.10
2022-10-03T13:25:06.576Z,1.42
2022-10-03T13:28:23.932Z,1.27
2022-10-03T13:31:39.783Z,0.98
2022-10-03T13:35:20.613Z,0.98
2022-10-03T13:38:55.427Z,1.23
2022-10-03T13:42:13.683Z,0.82
2022-10-03T13:45:27.436Z,1.13
2022-10-03T13:48:31.941Z,0.90
2022-10-03T13:51:59.518Z,1.23
2022-10-03T13:55:26.117Z,0.90
2022-10-03T13:58:33.409Z,0.30
2022-10-03T14:01:47.673Z,0.77
2022-10-03T14:05:27.436Z,0.95
2022-10-03T14:09:07.075Z,0.68
2022-10-03T14:12:54.872Z,1.33
2022-10-03T14:16:15.229Z,0.73
2022-10-03T14:19:39.639Z,1.45
2022-10-03T14:23:00.154Z,0.68
2022-10-03T14:27:04.451Z,0.95
2022-10-03T14:30:25.710Z,1.27
2022-10-03T14:34:04.640Z,1.00
2022-10-03T14:37:20.149Z,0.90
2022-10-03T14:40:33.046Z,0.80
2022-10-03T14:44:12.656Z,1.02
2022-10-03T14:50:53.979Z,1.02
2022-10-03T14:54:05.336Z,1.85
2022-10-03T14:57:27.271Z,1.83
2022-10-03T15:01:11.665Z,1.30
2022-10-03T15:04:37.509Z,0.95
2022-10-03T15:07:43.511Z,1.40
2022-10-03T15:10:47.621Z,1.40
2022-10-03T15:14:02.774Z,1.80
2022-10-03T15:17:19.739Z,1.48
2022-10-03T15:20:34.313Z,1.83
2022-10-03T15:23:49.591Z,1.40
2022-10-03T15:27:02.193Z,1.40
2022-10-03T15:30:07.152Z,1.63
2022-10-03T15:33:23.809Z,1.45
2022-10-03T15:36:34.158Z,2.47
2022-10-03T15:39:44.342Z,2.53
2022-10-03T15:42:51.910Z,1.77
2022-10-03T15:45:58.540Z,1.45
2022-10-03T15:49:07.866Z,1.40
2022-10-03T15:52:24.024Z,1.88
2022-10-03T15:55:43.115Z,1.42
2022-10-03T15:59:06.357Z,1.60
2022-10-03T16:02:31.231Z,2.17
2022-10-03T16:05:34.994Z,2.95
2022-10-03T16:08:52.241Z,4.85
2022-10-03T16:12:18.986Z,4.85
2022-10-03T16:15:43.862Z,8.70
2022-10-03T16:18:55.600Z,6.38
2022-10-03T16:22:10.738Z,5.63
2022-10-03T16:25:18.554Z,5.07
2022-10-03T16:28:34.033Z,5.43
2022-10-03T16:31:50.752Z,5.25
2022-10-03T16:35:03.835Z,4.65
2022-10-03T16:38:20.870Z,4.68
2022-10-03T16:41:35.250Z,5.07
2022-10-03T16:44:49.590Z,4.18
2022-10-03T16:48:14.632Z,5.18
2022-10-03T16:51:23.708Z,4.25
2022-10-03T16:54:28.336Z,4.28
2022-10-03T16:58:13.405Z,4.22
2022-10-03T17:01:36.243Z,4.28
2022-10-03T17:04:42.446Z,4.25
2022-10-03T17:08:29.818Z,4.10
2022-10-03T17:11:29.094Z,3.80
2022-10-03T17:14:39.908Z,3.72
2022-10-03T17:17:47.223Z,3.20
2022-10-03T17:20:57.286Z,3.90
2022-10-03T17:24:18.072Z,4.65
2022-10-03T17:27:32.907Z,4.18
2022-10-03T17:30:48.105Z,4.38
2022-10-03T17:33:57.281Z,4.78
2022-10-03T17:37:17.695Z,3.72
2022-10-03T17:40:44.696Z,4.32
2022-10-03T17:43:58.643Z,3.05
2022-10-03T17:47:43.489Z,3.22
2022-10-03T17:51:18.264Z,2.90
2022-10-03T17:54:27.027Z,3.33
2022-10-03T17:57:42.832Z,3.60
2022-10-03T18:00:45.037Z,3.05
2022-10-03T18:03:53.486Z,3.10
2022-10-03T18:07:02.193Z,3.58
2022-10-03T18:10:17.074Z,3.22
2022-10-03T18:13:48.702Z,3.55
2022-10-03T18:17:17.426Z,3.83
2022-10-03T18:20:58.469Z,3.07
2022-10-03T18:24:18.646Z,2.30
2022-10-03T18:28:04.511Z,3.03
2022-10-03T18:31:18.627Z,2.92
2022-10-03T18:34:36.305Z,2.83
2022-10-03T18:37:44.730Z,2.70
2022-10-03T18:40:53.635Z,2.80
2022-10-03T18:44:00.156Z,2.58
2022-10-03T18:47:20.914Z,2.90
2022-10-03T18:50:29.697Z,3.00
2022-10-03T18:53:44.864Z,2.35
2022-10-03T18:56:58.800Z,2.78
2022-10-03T19:00:09.865Z,2.22
2022-10-03T19:03:19.199Z,3.22
2022-10-03T19:06:28.769Z,3.33
2022-10-03T19:09:39.319Z,3.00
2022-10-03T19:12:49.923Z,3.00
2022-10-03T19:16:33.326Z,3.13
2022-10-03T19:19:55.247Z,2.97
2022-10-03T19:23:00.186Z,2.60
2022-10-03T19:26:08.927Z,3.42
2022-10-03T19:29:22.521Z,3.70
2022-10-03T19:32:35.035Z,3.03
2022-10-03T19:35:46.380Z,2.97
2022-10-03T19:38:49.745Z,2.70
2022-10-03T19:41:56.462Z,3.28
2022-10-03T19:45:00.694Z,3.55
2022-10-03T19:48:10.917Z,3.50
2022-10-03T19:51:25.664Z,3.63
2022-10-03T19:54:43.469Z,3.28
2022-10-03T19:57:58.484Z,3.47
2022-10-03T20:01:02.710Z,4.10
2022-10-03T20:04:05.046Z,3.45
2022-10-03T20:07:48.185Z,3.40
2022-10-03T20:11:08.665Z,3.65
2022-10-03T20:14:29.289Z,3.58
2022-10-03T20:17:32.767Z,3.47
2022-10-03T20:20:36.271Z,4.38
2022-10-03T20:23:42.369Z,3.53
2022-10-03T20:27:06.143Z,3.15
2022-10-03T20:30:40.266Z,2.78
2022-10-03T20:33:44.963Z,2.55
2022-10-03T20:36:58.116Z,2.50
2022-10-03T20:40:36.055Z,2.40
2022-10-03T20:43:53.470Z,2.80
2022-10-03T20:47:02.811Z,2.47
2022-10-03T20:50:37.417Z,1.98
2022-10-03T20:53:46.016Z,2.38
2022-10-03T21:00:20.987Z,1.98
2022-10-03T21:03:37.801Z,2.08
2022-10-03T21:06:54.436Z,1.83
2022-10-03T21:10:32.305Z,1.60
2022-10-03T21:13:42.899Z,1.50
2022-10-03T21:16:49.194Z,1.73
2022-10-03T21:19:55.463Z,1.95
2022-10-03T21:23:03.532Z,1.48
2022-10-03T21:29:27.176Z,1.33
2022-10-03T21:32:46.586Z,1.10
2022-10-03T21:35:51.639Z,1.05
2022-10-03T21:39:04.206Z,0.90
2022-10-03T21:42:06.264Z,0.85
2022-10-03T21:45:32.016Z,0.90
2022-10-03T21:48:41.706Z,1.00
2022-10-03T21:51:50.234Z,0.82
2022-10-03T21:58:45.849Z,0.80
2022-10-03T22:02:07.071Z,0.75
2022-10-03T22:05:24.549Z,1.08
2022-10-03T22:08:34.032Z,0.98
2022-10-03T22:11:51.015Z,1.00
2022-10-03T22:14:56.500Z,0.73
2022-10-03T22:18:19.585Z,1.10
2022-10-03T22:21:35.867Z,1.20
2022-10-03T22:24:42.296Z,0.70
2022-10-03T22:28:06.090Z,0.70
2022-10-03T22:31:26.207Z,1.40
2022-10-03T22:34:47.067Z,1.02
2022-10-03T22:37:49.967Z,1.00
2022-10-03T22:40:55.602Z,1.20
2022-10-03T22:43:59.883Z,1.00
2022-10-03T22:47:13.507Z,0.80
2022-10-03T22:50:19.419Z,1.27
2022-10-03T22:53:27.139Z,1.60
2022-10-03T22:56:55.415Z,1.30
2022-10-03T23:03:15.670Z,1.00
2022-10-03T23:06:38.038Z,1.33
2022-10-03T23:10:07.015Z,1.02
2022-10-03T23:13:14.704Z,1.10
2022-10-03T23:16:35.379Z,0.97
2022-10-03T23:19:52.600Z,1.08
2022-10-03T23:23:00.728Z,0.90
2022-10-03T23:29:20.074Z,1.35
2022-10-03T23:32:53.740Z,1.20
2022-10-03T23:35:56.552Z,1.30
2022-10-03T23:39:02.178Z,1.30
2022-10-03T23:42:31.412Z,1.42
2022-10-03T23:45:35.767Z,1.10
2022-10-03T23:48:46.954Z,1.20
2022-10-03T23:51:49.855Z,1.90
2022-10-03T23:54:55.081Z,1.48
2022-10-03T23:57:58.570Z,2.67
